sensor_id;sensor_type;location;lat;lon;timestamp;P1;durP1;ratioP1;P2;durP2;ratioP2
61739;SDS011;47645;45.288;12.038;2023-05-10T00:00:16;8.5;;;6.6;;
61739;SDS011;47645;45.288;12.038;2023-05-10T00:10:17;9.6;;;6.8;;
61739;SDS011;47645;45.288;12.038;2023-05-10T00:20:18;12.2;;;5.4;;
61739;SDS011;47645;45.288;12.038;2023-05-10T00:30:19;8.2;;;4.7;;
61739;SDS011;47645;45.288;12.038;2023-05-10T00:40:21;6.3;;;3.9;;
61739;SDS011;47645;45.288;12.038;2023-05-10T00:50:21;8.1;;;3.5;;
61739;SDS011;47645;45.288;12.038;2023-05-10T01:00:22;5.9;;;3.0;;
61739;SDS011;47645;45.288;12.038;2023-05-10T01:10:23;4.6;;;2.4;;
61739;SDS011;47645;45.288;12.038;2023-05-10T01:20:24;3.6;;;2.3;;
61739;SDS011;47645;45.288;12.038;2023-05-10T01:30:32;5.9;;;2.4;;
61739;SDS011;47645;45.288;12.038;2023-05-10T01:40:27;3.5;;;2.3;;
61739;SDS011;47645;45.288;12.038;2023-05-10T01:50:27;6.6;;;2.5;;
61739;SDS011;47645;45.288;12.038;2023-05-10T02:00:28;4.0;;;2.4;;
61739;SDS011;47645;45.288;12.038;2023-05-10T02:10:29;4.7;;;2.3;;
61739;SDS011;47645;45.288;12.038;2023-05-10T02:20:30;6.8;;;2.4;;
61739;SDS011;47645;45.288;12.038;2023-05-10T02:30:31;3.1;;;2.2;;
61739;SDS011;47645;45.288;12.038;2023-05-10T02:40:32;5.2;;;2.1;;
61739;SDS011;47645;45.288;12.038;2023-05-10T02:50:33;3.5;;;2.1;;
61739;SDS011;47645;45.288;12.038;2023-05-10T03:00:33;3.1;;;2.0;;
61739;SDS011;47645;45.288;12.038;2023-05-10T03:10:38;4.7;;;2.1;;
61739;SDS011;47645;45.288;12.038;2023-05-10T03:20:36;2.9;;;2.2;;
61739;SDS011;47645;45.288;12.038;2023-05-10T03:30:37;4.5;;;2.0;;
61739;SDS011;47645;45.288;12.038;2023-05-10T03:40:37;3.7;;;2.5;;
61739;SDS011;47645;45.288;12.038;2023-05-10T03:50:38;2.9;;;2.0;;
61739;SDS011;47645;45.288;12.038;2023-05-10T04:00:43;4.0;;;2.2;;
61739;SDS011;47645;45.288;12.038;2023-05-10T04:10:40;4.1;;;2.3;;
61739;SDS011;47645;45.288;12.038;2023-05-10T04:20:41;6.5;;;2.4;;
61739;SDS011;47645;45.288;12.038;2023-05-10T04:30:42;3.2;;;2.4;;
61739;SDS011;47645;45.288;12.038;2023-05-10T04:40:43;4.1;;;2.4;;
61739;SDS011;47645;45.288;12.038;2023-05-10T04:50:43;4.2;;;2.7;;
61739;SDS011;47645;45.288;12.038;2023-05-10T05:00:44;3.9;;;2.6;;
61739;SDS011;47645;45.288;12.038;2023-05-10T05:10:45;4.2;;;2.7;;
61739;SDS011;47645;45.288;12.038;2023-05-10T05:20:46;4.7;;;3.1;;
61739;SDS011;47645;45.288;12.038;2023-05-10T05:30:47;4.6;;;3.1;;
61739;SDS011;47645;45.288;12.038;2023-05-10T05:40:48;6.1;;;3.0;;
61739;SDS011;47645;45.288;12.038;2023-05-10T05:50:49;4.5;;;2.6;;
61739;SDS011;47645;45.288;12.038;2023-05-10T06:00:50;5.1;;;3.2;;
61739;SDS011;47645;45.288;12.038;2023-05-10T06:10:51;4.5;;;3.5;;
61739;SDS011;47645;45.288;12.038;2023-05-10T06:20:52;5.2;;;3.4;;
61739;SDS011;47645;45.288;12.038;2023-05-10T06:30:53;5.2;;;3.5;;
61739;SDS011;47645;45.288;12.038;2023-05-10T06:40:53;4.6;;;3.0;;
61739;SDS011;47645;45.288;12.038;2023-05-10T06:50:54;7.1;;;3.6;;
61739;SDS011;47645;45.288;12.038;2023-05-10T07:01:01;7.6;;;3.5;;
61739;SDS011;47645;45.288;12.038;2023-05-10T07:10:59;9.5;;;3.8;;
61739;SDS011;47645;45.288;12.038;2023-05-10T07:20:57;6.0;;;4.0;;
61739;SDS011;47645;45.288;12.038;2023-05-10T07:30:58;4.9;;;3.6;;
61739;SDS011;47645;45.288;12.038;2023-05-10T07:40:59;5.7;;;3.8;;
61739;SDS011;47645;45.288;12.038;2023-05-10T07:51:00;5.8;;;3.7;;
61739;SDS011;47645;45.288;12.038;2023-05-10T08:01:01;5.7;;;3.9;;
61739;SDS011;47645;45.288;12.038;2023-05-10T08:11:03;6.0;;;3.5;;
61739;SDS011;47645;45.288;12.038;2023-05-10T08:21:03;8.5;;;3.7;;
61739;SDS011;47645;45.288;12.038;2023-05-10T08:31:04;5.5;;;4.3;;
61739;SDS011;47645;45.288;12.038;2023-05-10T08:41:05;6.8;;;4.2;;
61739;SDS011;47645;45.288;12.038;2023-05-10T08:51:06;8.5;;;4.5;;
61739;SDS011;47645;45.288;12.038;2023-05-10T09:01:07;6.7;;;4.6;;
61739;SDS011;47645;45.288;12.038;2023-05-10T09:11:08;7.5;;;4.5;;
61739;SDS011;47645;45.288;12.038;2023-05-10T09:21:08;6.6;;;4.3;;
61739;SDS011;47645;45.288;12.038;2023-05-10T09:31:10;8.9;;;5.0;;
61739;SDS011;47645;45.288;12.038;2023-05-10T09:41:15;9.4;;;5.3;;
61739;SDS011;47645;45.288;12.038;2023-05-10T09:51:18;7.3;;;5.0;;
61739;SDS011;47645;45.288;12.038;2023-05-10T10:01:12;7.1;;;5.2;;
61739;SDS011;47645;45.288;12.038;2023-05-10T10:11:13;6.4;;;4.9;;
61739;SDS011;47645;45.288;12.038;2023-05-10T10:21:14;8.2;;;4.9;;
61739;SDS011;47645;45.288;12.038;2023-05-10T10:31:17;9.2;;;5.7;;
61739;SDS011;47645;45.288;12.038;2023-05-10T10:41:27;7.4;;;5.0;;
61739;SDS011;47645;45.288;12.038;2023-05-10T10:51:17;7.0;;;5.7;;
61739;SDS011;47645;45.288;12.038;2023-05-10T11:01:18;7.3;;;5.2;;
61739;SDS011;47645;45.288;12.038;2023-05-10T11:11:20;8.7;;;5.6;;
61739;SDS011;47645;45.288;12.038;2023-05-10T11:21:20;7.1;;;5.2;;
61739;SDS011;47645;45.288;12.038;2023-05-10T11:31:21;6.8;;;5.1;;
61739;SDS011;47645;45.288;12.038;2023-05-10T11:41:22;7.8;;;5.2;;
61739;SDS011;47645;45.288;12.038;2023-05-10T11:51:23;7.0;;;5.0;;
61739;SDS011;47645;45.288;12.038;2023-05-10T12:01:24;7.6;;;5.0;;
61739;SDS011;47645;45.288;12.038;2023-05-10T12:11:25;8.2;;;5.5;;
61739;SDS011;47645;45.288;12.038;2023-05-10T12:21:26;6.3;;;5.3;;
61739;SDS011;47645;45.288;12.038;2023-05-10T12:31:26;8.5;;;6.1;;
61739;SDS011;47645;45.288;12.038;2023-05-10T12:41:28;7.8;;;5.0;;
61739;SDS011;47645;45.288;12.038;2023-05-10T12:51:28;6.4;;;5.0;;
61739;SDS011;47645;45.288;12.038;2023-05-10T13:01:29;7.3;;;5.2;;
61739;SDS011;47645;45.288;12.038;2023-05-10T13:11:30;8.1;;;5.5;;
61739;SDS011;47645;45.288;12.038;2023-05-10T13:21:31;7.6;;;4.7;;
61739;SDS011;47645;45.288;12.038;2023-05-10T13:31:32;7.4;;;4.7;;
61739;SDS011;47645;45.288;12.038;2023-05-10T13:41:34;7.4;;;5.3;;
61739;SDS011;47645;45.288;12.038;2023-05-10T13:51:34;8.1;;;4.9;;
61739;SDS011;47645;45.288;12.038;2023-05-10T14:01:35;7.1;;;4.7;;
61739;SDS011;47645;45.288;12.038;2023-05-10T14:11:36;7.4;;;5.6;;
61739;SDS011;47645;45.288;12.038;2023-05-10T14:21:37;8.6;;;6.1;;
61739;SDS011;47645;45.288;12.038;2023-05-10T14:31:38;8.3;;;5.7;;
61739;SDS011;47645;45.288;12.038;2023-05-10T14:41:41;10.9;;;6.3;;
61739;SDS011;47645;45.288;12.038;2023-05-10T14:51:40;8.2;;;5.8;;
61739;SDS011;47645;45.288;12.038;2023-05-10T15:01:42;7.4;;;5.8;;
61739;SDS011;47645;45.288;12.038;2023-05-10T15:11:41;7.7;;;6.1;;
61739;SDS011;47645;45.288;12.038;2023-05-10T15:21:44;6.8;;;5.2;;
61739;SDS011;47645;45.288;12.038;2023-05-10T15:31:43;6.7;;;5.7;;
61739;SDS011;47645;45.288;12.038;2023-05-10T15:41:45;8.6;;;6.3;;
61739;SDS011;47645;45.288;12.038;2023-05-10T15:51:45;9.3;;;6.3;;
61739;SDS011;47645;45.288;12.038;2023-05-10T16:01:46;6.5;;;5.3;;
61739;SDS011;47645;45.288;12.038;2023-05-10T16:11:47;8.0;;;6.6;;
61739;SDS011;47645;45.288;12.038;2023-05-10T16:21:48;7.5;;;6.1;;
61739;SDS011;47645;45.288;12.038;2023-05-10T16:31:49;8.4;;;6.8;;
61739;SDS011;47645;45.288;12.038;2023-05-10T16:41:50;7.8;;;6.0;;
61739;SDS011;47645;45.288;12.038;2023-05-10T16:51:51;8.0;;;5.8;;
61739;SDS011;47645;45.288;12.038;2023-05-10T17:01:52;7.6;;;6.4;;
61739;SDS011;47645;45.288;12.038;2023-05-10T17:11:52;6.7;;;5.7;;
61739;SDS011;47645;45.288;12.038;2023-05-10T17:21:54;7.7;;;6.2;;
61739;SDS011;47645;45.288;12.038;2023-05-10T17:31:54;9.2;;;6.7;;
61739;SDS011;47645;45.288;12.038;2023-05-10T17:41:55;7.7;;;6.5;;
61739;SDS011;47645;45.288;12.038;2023-05-10T17:51:56;8.5;;;7.2;;
61739;SDS011;47645;45.288;12.038;2023-05-10T18:01:57;7.3;;;6.5;;
61739;SDS011;47645;45.288;12.038;2023-05-10T18:11:58;8.5;;;6.8;;
61739;SDS011;47645;45.288;12.038;2023-05-10T18:21:59;10.1;;;7.9;;
61739;SDS011;47645;45.288;12.038;2023-05-10T18:32:00;10.1;;;7.6;;
61739;SDS011;47645;45.288;12.038;2023-05-10T18:42:01;9.6;;;7.3;;
61739;SDS011;47645;45.288;12.038;2023-05-10T18:52:02;8.7;;;7.6;;
61739;SDS011;47645;45.288;12.038;2023-05-10T19:02:03;9.5;;;7.1;;
61739;SDS011;47645;45.288;12.038;2023-05-10T19:12:04;9.2;;;8.3;;
61739;SDS011;47645;45.288;12.038;2023-05-10T19:22:04;9.4;;;8.4;;
61739;SDS011;47645;45.288;12.038;2023-05-10T19:32:06;9.5;;;8.2;;
61739;SDS011;47645;45.288;12.038;2023-05-10T19:42:07;10.5;;;7.1;;
61739;SDS011;47645;45.288;12.038;2023-05-10T19:52:09;9.0;;;7.9;;
61739;SDS011;47645;45.288;12.038;2023-05-10T20:02:08;9.0;;;7.5;;
61739;SDS011;47645;45.288;12.038;2023-05-10T20:12:09;7.7;;;6.9;;
61739;SDS011;47645;45.288;12.038;2023-05-10T20:22:10;8.3;;;6.6;;
61739;SDS011;47645;45.288;12.038;2023-05-10T20:32:11;7.9;;;6.5;;
61739;SDS011;47645;45.288;12.038;2023-05-10T20:42:12;8.8;;;6.4;;
61739;SDS011;47645;45.288;12.038;2023-05-10T20:52:14;8.6;;;6.7;;
61739;SDS011;47645;45.288;12.038;2023-05-10T21:02:15;7.8;;;5.7;;
61739;SDS011;47645;45.288;12.038;2023-05-10T21:12:15;7.0;;;5.2;;
61739;SDS011;47645;45.288;12.038;2023-05-10T21:22:15;6.6;;;5.1;;
61739;SDS011;47645;45.288;12.038;2023-05-10T21:32:17;7.4;;;4.7;;
61739;SDS011;47645;45.288;12.038;2023-05-10T21:42:17;5.9;;;4.4;;
61739;SDS011;47645;45.288;12.038;2023-05-10T21:52:20;6.2;;;4.5;;
61739;SDS011;47645;45.288;12.038;2023-05-10T22:02:20;5.8;;;5.1;;
61739;SDS011;47645;45.288;12.038;2023-05-10T22:12:20;5.7;;;4.5;;
61739;SDS011;47645;45.288;12.038;2023-05-10T22:22:22;4.9;;;4.0;;
61739;SDS011;47645;45.288;12.038;2023-05-10T22:32:21;4.7;;;3.8;;
61739;SDS011;47645;45.288;12.038;2023-05-10T22:42:22;4.6;;;3.7;;
61739;SDS011;47645;45.288;12.038;2023-05-10T22:52:23;6.6;;;3.9;;
61739;SDS011;47645;45.288;12.038;2023-05-10T23:02:24;5.5;;;3.7;;
61739;SDS011;47645;45.288;12.038;2023-05-10T23:12:24;5.3;;;3.8;;
61739;SDS011;47645;45.288;12.038;2023-05-10T23:22:25;5.0;;;3.6;;
61739;SDS011;47645;45.288;12.038;2023-05-10T23:32:26;4.6;;;4.1;;
61739;SDS011;47645;45.288;12.038;2023-05-10T23:42:27;4.7;;;3.2;;
61739;SDS011;47645;45.288;12.038;2023-05-10T23:52:28;4.1;;;2.9;;
